createdAt,value
2022-09-14T00:00:08.131Z,5.75
2022-09-14T00:02:34.522Z,2.47
2022-09-14T00:05:00.981Z,9.38
2022-09-14T00:07:27.263Z,3.97
2022-09-14T00:09:53.534Z,14.98
2022-09-14T00:12:19.834Z,4.32
2022-09-14T00:14:46.414Z,4.72
2022-09-14T00:17:12.659Z,9.25
2022-09-14T00:19:38.953Z,7.35
2022-09-14T00:22:06.739Z,9.43
2022-09-14T00:24:34.937Z,4.60
2022-09-14T00:27:02.638Z,3.35
2022-09-14T00:29:29.803Z,4.28
2022-09-14T00:31:56.284Z,3.45
2022-09-14T00:34:22.626Z,4.55
2022-09-14T00:36:49.690Z,8.18
2022-09-14T00:39:17.313Z,5.45
2022-09-14T00:41:44.426Z,11.05
2022-09-14T00:44:10.695Z,5.78
2022-09-14T00:46:40.071Z,10.60
2022-09-14T00:49:21.188Z,4.80
2022-09-14T00:51:50.811Z,8.45
2022-09-14T00:54:17.325Z,6.65
2022-09-14T00:56:45.452Z,3.17
2022-09-14T00:59:15.623Z,4.25
2022-09-14T01:01:42.007Z,4.80
2022-09-14T01:04:08.307Z,4.35
2022-09-14T01:06:52.547Z,5.13
2022-09-14T01:09:24.867Z,7.25
2022-09-14T01:11:59.786Z,10.65
2022-09-14T01:14:39.011Z,7.68
2022-09-14T01:17:13.418Z,14.13
2022-09-14T01:20:07.802Z,9.50
2022-09-14T01:22:42.881Z,7.22
2022-09-14T01:25:20.806Z,4.32
2022-09-14T01:27:49.095Z,3.92
2022-09-14T01:30:19.315Z,5.88
2022-09-14T01:32:48.548Z,8.38
2022-09-14T01:35:23.486Z,7.55
2022-09-14T01:37:52.632Z,10.38
2022-09-14T01:40:28.252Z,8.43
2022-09-14T01:43:23.867Z,6.82
2022-09-14T01:45:53.108Z,7.20
2022-09-14T01:48:22.448Z,7.55
2022-09-14T01:50:52.137Z,4.68
2022-09-14T01:53:22.690Z,7.65
2022-09-14T01:55:55.253Z,9.25
2022-09-14T01:58:26.073Z,7.82
2022-09-14T02:00:53.897Z,2.78
2022-09-14T02:03:22.615Z,8.43
2022-09-14T02:05:53.598Z,7.38
2022-09-14T02:08:19.946Z,9.63
2022-09-14T02:10:46.224Z,12.40
2022-09-14T02:13:12.601Z,7.65
2022-09-14T02:15:39.079Z,6.45
2022-09-14T02:18:05.502Z,5.28
2022-09-14T02:20:41.787Z,3.05
2022-09-14T02:23:08.227Z,6.03
2022-09-14T02:25:36.293Z,19.23
2022-09-14T02:28:03.155Z,5.85
2022-09-14T02:30:33.790Z,3.58
2022-09-14T02:33:08.350Z,4.85
2022-09-14T02:35:42.329Z,11.30
2022-09-14T02:38:13.445Z,5.63
2022-09-14T02:40:55.051Z,5.45
2022-09-14T02:43:33.567Z,4.10
2022-09-14T02:46:18.670Z,8.25
2022-09-14T02:48:52.077Z,8.55
2022-09-14T02:51:21.459Z,11.38
2022-09-14T02:54:03.645Z,4.35
2022-09-14T02:56:29.915Z,8.98
2022-09-14T02:58:56.489Z,12.23
2022-09-14T03:01:23.347Z,10.57
2022-09-14T03:03:49.797Z,7.60
2022-09-14T03:06:16.240Z,8.10
2022-09-14T03:08:42.543Z,6.85
2022-09-14T03:11:08.826Z,9.55
2022-09-14T03:13:35.731Z,5.30
2022-09-14T03:16:09.644Z,14.60
2022-09-14T03:18:36.089Z,5.18
2022-09-14T03:21:04.770Z,4.65
2022-09-14T03:23:31.505Z,9.18
2022-09-14T03:25:57.779Z,2.72
2022-09-14T03:28:24.018Z,15.00
2022-09-14T03:30:50.303Z,6.07
2022-09-14T03:33:16.609Z,7.63
2022-09-14T03:35:42.859Z,7.57
2022-09-14T03:38:09.159Z,7.53
2022-09-14T03:40:35.749Z,5.07
2022-09-14T03:43:02.015Z,17.15
2022-09-14T03:45:28.274Z,7.07
2022-09-14T03:47:54.819Z,8.27
2022-09-14T03:50:21.071Z,13.82
2022-09-14T03:52:47.639Z,13.65
2022-09-14T03:55:13.925Z,7.40
2022-09-14T03:57:40.189Z,8.40
2022-09-14T04:00:07.225Z,9.43
2022-09-14T04:02:33.539Z,5.63
2022-09-14T04:04:59.818Z,4.43
2022-09-14T04:07:26.240Z,3.22
2022-09-14T04:09:52.493Z,10.48
2022-09-14T04:12:18.733Z,11.20
2022-09-14T04:14:45.007Z,8.68
2022-09-14T04:17:11.259Z,6.68
2022-09-14T04:19:41.486Z,8.95
2022-09-14T04:22:07.897Z,10.65
2022-09-14T04:24:34.297Z,7.28
2022-09-14T04:27:00.601Z,6.28
2022-09-14T04:29:26.913Z,6.57
2022-09-14T04:31:53.189Z,4.85
2022-09-14T04:34:19.473Z,5.78
2022-09-14T04:36:45.717Z,9.70
2022-09-14T04:39:13.583Z,8.23
2022-09-14T04:41:40.218Z,9.65
2022-09-14T04:44:06.528Z,6.88
2022-09-14T04:46:35.696Z,9.07
2022-09-14T04:49:02.127Z,10.13
2022-09-14T04:51:29.865Z,15.50
2022-09-14T04:53:57.041Z,9.13
2022-09-14T04:56:24.042Z,7.70
2022-09-14T04:58:52.150Z,7.80
2022-09-14T05:01:37.987Z,7.50
2022-09-14T05:04:04.962Z,5.85
2022-09-14T05:06:32.666Z,4.82
2022-09-14T05:08:59.955Z,14.43
2022-09-14T05:11:30.680Z,10.20
2022-09-14T05:13:57.383Z,5.53
2022-09-14T05:16:25.363Z,10.15
2022-09-14T05:18:53.459Z,6.97
2022-09-14T05:21:20.434Z,5.18
2022-09-14T05:23:47.037Z,9.82
2022-09-14T05:26:14.051Z,11.48
2022-09-14T05:28:40.582Z,8.98
2022-09-14T05:31:07.863Z,6.70
2022-09-14T05:33:34.636Z,4.97
2022-09-14T05:36:01.942Z,8.20
2022-09-14T05:38:29.491Z,4.80
2022-09-14T05:40:55.840Z,8.57
2022-09-14T05:43:22.683Z,10.95
2022-09-14T05:45:49.358Z,5.70
2022-09-14T05:48:15.937Z,3.17
2022-09-14T05:50:42.406Z,11.95
2022-09-14T05:53:08.645Z,11.20
2022-09-14T05:55:34.921Z,5.85
2022-09-14T05:58:01.299Z,9.27
2022-09-14T06:00:27.778Z,8.00
2022-09-14T06:02:54.678Z,11.02
2022-09-14T06:05:21.501Z,9.15
2022-09-14T06:07:59.983Z,5.88
2022-09-14T06:10:26.253Z,6.95
2022-09-14T06:12:55.452Z,8.85
2022-09-14T06:15:24.590Z,7.53
2022-09-14T06:17:50.961Z,9.02
2022-09-14T06:20:18.749Z,9.50
2022-09-14T06:22:45.017Z,9.23
2022-09-14T06:25:11.512Z,9.85
2022-09-14T06:27:38.243Z,15.75
2022-09-14T06:30:05.005Z,9.10
2022-09-14T06:32:31.272Z,15.13
2022-09-14T06:34:57.554Z,11.43
2022-09-14T06:37:23.806Z,11.80
2022-09-14T06:39:50.154Z,14.90
2022-09-14T06:42:16.473Z,8.15
2022-09-14T06:44:42.759Z,9.80
2022-09-14T06:47:09.062Z,10.40
2022-09-14T06:49:35.334Z,19.33
2022-09-14T06:52:01.674Z,9.32
2022-09-14T06:54:27.962Z,7.18
2022-09-14T06:56:54.285Z,8.13
2022-09-14T06:59:20.567Z,7.47
2022-09-14T07:01:48.251Z,6.20
2022-09-14T07:04:14.882Z,6.78
2022-09-14T07:06:42.646Z,10.23
2022-09-14T07:09:09.024Z,6.30
2022-09-14T07:11:35.354Z,13.00
2022-09-14T07:14:02.173Z,8.30
2022-09-14T07:16:29.807Z,11.32
2022-09-14T07:18:56.833Z,13.40
2022-09-14T07:21:23.585Z,11.18
2022-09-14T07:23:49.990Z,6.45
2022-09-14T07:26:20.521Z,5.85
2022-09-14T07:28:48.721Z,7.28
2022-09-14T07:31:17.165Z,9.20
2022-09-14T07:33:43.469Z,13.93
2022-09-14T07:36:10.769Z,8.20
2022-09-14T07:38:51.615Z,11.00
2022-09-14T07:41:20.151Z,9.73
2022-09-14T07:43:50.382Z,8.10
2022-09-14T07:46:16.694Z,4.43
2022-09-14T07:48:43.636Z,10.88
2022-09-14T07:51:10.501Z,4.22
2022-09-14T07:53:41.457Z,9.77
2022-09-14T07:56:08.263Z,11.73
2022-09-14T07:58:34.560Z,10.55
2022-09-14T08:01:01.666Z,6.05
2022-09-14T08:03:28.870Z,14.63
2022-09-14T08:05:59.967Z,13.40
2022-09-14T08:08:27.799Z,7.10
2022-09-14T08:10:54.143Z,8.55
2022-09-14T08:13:20.436Z,9.95
2022-09-14T08:15:46.695Z,10.65
2022-09-14T08:18:13.077Z,11.32
2022-09-14T08:20:39.337Z,10.35
2022-09-14T08:23:05.601Z,13.75
2022-09-14T08:25:31.863Z,7.80
2022-09-14T08:28:00.786Z,7.40
2022-09-14T08:30:27.046Z,11.07
2022-09-14T08:32:53.285Z,5.13
2022-09-14T08:35:30.869Z,9.45
2022-09-14T08:38:05.768Z,8.82
2022-09-14T08:40:32.094Z,7.70
2022-09-14T08:43:02.424Z,13.93
2022-09-14T08:45:28.991Z,8.65
2022-09-14T08:47:57.412Z,8.88
2022-09-14T08:50:24.307Z,8.75
2022-09-14T08:52:52.770Z,9.55
2022-09-14T08:55:37.474Z,11.70
2022-09-14T08:58:15.647Z,9.27
2022-09-14T09:00:44.524Z,7.38
2022-09-14T09:03:29.636Z,10.10
2022-09-14T09:06:16.119Z,8.68
2022-09-14T09:08:45.335Z,8.55
2022-09-14T09:11:14.651Z,11.95
2022-09-14T09:13:42.407Z,13.98
2022-09-14T09:16:09.975Z,9.70
2022-09-14T09:18:39.321Z,11.52
2022-09-14T09:21:09.130Z,11.15
2022-09-14T09:23:35.851Z,7.03
2022-09-14T09:26:21.740Z,11.60
2022-09-14T09:28:49.789Z,10.90
2022-09-14T09:31:17.312Z,11.35
2022-09-14T09:33:49.457Z,12.82
2022-09-14T09:36:16.121Z,5.28
2022-09-14T09:38:42.391Z,12.07
2022-09-14T09:41:18.025Z,7.93
2022-09-14T09:43:56.647Z,9.52
2022-09-14T09:46:23.037Z,18.73
2022-09-14T09:48:49.339Z,11.68
2022-09-14T09:51:20.885Z,6.85
2022-09-14T09:53:54.483Z,11.05
2022-09-14T09:56:29.097Z,18.02
2022-09-14T09:58:55.363Z,8.15
2022-09-14T10:01:28.674Z,13.85
2022-09-14T10:04:02.829Z,4.50
2022-09-14T10:06:29.363Z,7.90
2022-09-14T10:08:57.377Z,11.00
2022-09-14T10:11:41.849Z,7.80
2022-09-14T10:14:20.164Z,9.38
2022-09-14T10:16:47.455Z,9.50
2022-09-14T10:19:25.882Z,17.00
2022-09-14T10:22:16.737Z,7.88
2022-09-14T10:24:52.002Z,16.13
2022-09-14T10:27:37.778Z,12.32
2022-09-14T10:30:05.686Z,12.95
2022-09-14T10:32:33.112Z,13.32
2022-09-14T10:34:59.508Z,11.00
2022-09-14T10:37:32.043Z,10.40
2022-09-14T10:40:13.507Z,7.82
2022-09-14T10:42:43.132Z,8.98
2022-09-14T10:45:18.346Z,8.57
2022-09-14T10:48:03.251Z,10.05
2022-09-14T10:50:50.056Z,11.57
2022-09-14T10:53:35.104Z,4.90
2022-09-14T10:56:23.582Z,8.80
2022-09-14T10:58:52.993Z,11.82
2022-09-14T11:01:28.535Z,7.50
2022-09-14T11:04:13.497Z,12.50
2022-09-14T11:06:53.163Z,6.72
2022-09-14T11:09:25.246Z,12.05
2022-09-14T11:11:54.509Z,10.45
2022-09-14T11:14:29.087Z,13.05
2022-09-14T11:17:13.915Z,9.57
2022-09-14T11:19:59.341Z,10.02
2022-09-14T11:22:28.711Z,11.10
2022-09-14T11:24:57.972Z,9.77
2022-09-14T11:27:26.717Z,6.82
2022-09-14T11:29:55.997Z,7.22
2022-09-14T11:32:30.198Z,15.05
2022-09-14T11:35:00.678Z,5.80
2022-09-14T11:37:30.973Z,12.88
2022-09-14T11:40:03.500Z,12.10
2022-09-14T11:43:05.869Z,12.95
2022-09-14T11:45:35.587Z,17.95
2022-09-14T11:48:41.252Z,11.93
2022-09-14T11:51:22.994Z,5.68
2022-09-14T11:53:50.726Z,9.68
2022-09-14T11:56:27.963Z,13.25
2022-09-14T11:58:55.080Z,9.32
2022-09-14T12:01:29.442Z,11.00
2022-09-14T12:04:02.039Z,12.93
2022-09-14T12:06:28.339Z,10.93
2022-09-14T12:08:54.629Z,6.80
2022-09-14T12:11:21.206Z,11.10
2022-09-14T12:13:47.455Z,9.55
2022-09-14T12:16:13.817Z,8.90
2022-09-14T12:18:42.001Z,10.15
2022-09-14T12:21:20.483Z,9.93
2022-09-14T12:23:51.710Z,8.82
2022-09-14T12:26:18.104Z,10.93
2022-09-14T12:28:48.869Z,8.40
2022-09-14T12:31:30.356Z,6.47
2022-09-14T12:34:05.575Z,9.43
2022-09-14T12:36:31.849Z,5.35
2022-09-14T12:38:58.094Z,8.88
2022-09-14T12:41:24.526Z,7.38
2022-09-14T12:43:51.179Z,14.98
2022-09-14T12:46:23.779Z,8.55
2022-09-14T12:48:54.233Z,5.90
2022-09-14T12:51:29.608Z,5.22
2022-09-14T12:54:01.644Z,5.68
2022-09-14T12:56:31.574Z,8.95
2022-09-14T13:01:26.111Z,4.50
2022-09-14T13:03:54.313Z,8.63
2022-09-14T13:06:20.953Z,7.82
2022-09-14T13:08:49.101Z,8.45
2022-09-14T13:11:24.087Z,9.18
2022-09-14T13:13:50.544Z,6.38
2022-09-14T13:16:22.465Z,10.38
2022-09-14T13:18:48.783Z,8.68
2022-09-14T13:21:22.298Z,7.50
2022-09-14T13:23:48.638Z,11.80
2022-09-14T13:26:22.843Z,10.30
2022-09-14T13:28:50.267Z,11.07
2022-09-14T13:31:33.375Z,10.52
2022-09-14T13:33:59.831Z,11.60
2022-09-14T13:36:30.740Z,9.02
2022-09-14T13:39:01.430Z,14.68
2022-09-14T13:41:28.209Z,4.68
2022-09-14T13:43:55.420Z,5.35
2022-09-14T13:46:22.985Z,5.60
2022-09-14T13:48:49.813Z,2.67
2022-09-14T13:51:16.842Z,4.72
2022-09-14T13:53:45.675Z,6.93
2022-09-14T13:56:19.728Z,5.35
2022-09-14T13:58:47.436Z,7.85
2022-09-14T14:01:23.451Z,6.22
2022-09-14T14:03:49.972Z,3.75
2022-09-14T14:06:27.099Z,3.88
2022-09-14T14:08:57.909Z,4.55
2022-09-14T14:11:32.611Z,3.83
2022-09-14T14:14:16.946Z,5.38
2022-09-14T14:17:02.201Z,5.60
2022-09-14T14:19:29.860Z,6.53
2022-09-14T14:22:11.724Z,4.38
2022-09-14T14:24:55.665Z,6.05
2022-09-14T14:27:24.192Z,4.93
2022-09-14T14:29:51.723Z,6.43
2022-09-14T14:32:17.980Z,6.45
2022-09-14T14:34:44.532Z,10.63
2022-09-14T14:37:10.791Z,8.07
2022-09-14T14:39:37.038Z,8.35
2022-09-14T14:42:04.240Z,8.00
2022-09-14T14:44:30.782Z,5.88
2022-09-14T14:46:57.268Z,7.88
2022-09-14T14:49:26.442Z,6.00
2022-09-14T14:51:53.611Z,5.03
2022-09-14T14:54:19.855Z,3.97
2022-09-14T14:56:47.198Z,3.60
2022-09-14T14:59:19.227Z,4.63
2022-09-14T15:01:45.645Z,3.40
2022-09-14T15:04:11.937Z,5.63
2022-09-14T15:06:38.473Z,5.53
2022-09-14T15:09:09.737Z,5.20
2022-09-14T15:11:38.453Z,4.57
2022-09-14T15:14:04.868Z,6.25
2022-09-14T15:16:31.261Z,5.53
2022-09-14T15:18:58.327Z,3.20
2022-09-14T15:21:25.148Z,6.50
2022-09-14T15:23:51.415Z,4.50
2022-09-14T15:26:17.953Z,5.30
2022-09-14T15:28:45.761Z,5.03
2022-09-14T15:31:13.275Z,4.93
2022-09-14T15:33:39.623Z,5.50
2022-09-14T15:36:05.989Z,4.78
2022-09-14T15:38:32.241Z,5.85
2022-09-14T15:40:58.502Z,8.70
2022-09-14T15:43:24.758Z,5.22
2022-09-14T15:45:51.140Z,4.05
2022-09-14T15:48:18.120Z,6.20
2022-09-14T15:50:45.224Z,7.13
2022-09-14T15:53:12.094Z,6.85
2022-09-14T15:55:39.811Z,6.35
2022-09-14T15:58:06.516Z,6.05
2022-09-14T16:00:32.934Z,5.88
2022-09-14T16:02:59.234Z,13.32
2022-09-14T16:05:25.497Z,9.85
2022-09-14T16:07:55.189Z,10.43
2022-09-14T16:10:22.724Z,15.25
2022-09-14T16:12:49.086Z,10.73
2022-09-14T16:15:15.447Z,15.27
2022-09-14T16:17:41.685Z,12.60
2022-09-14T16:20:09.990Z,10.40
2022-09-14T16:22:36.397Z,14.90
2022-09-14T16:25:02.899Z,17.75
2022-09-14T16:27:29.193Z,13.32
2022-09-14T16:29:55.546Z,13.77
2022-09-14T16:32:22.134Z,14.13
2022-09-14T16:34:48.590Z,13.50
2022-09-14T16:37:15.832Z,11.55
2022-09-14T16:39:42.827Z,11.68
2022-09-14T16:42:09.147Z,15.70
2022-09-14T16:44:35.554Z,29.55
2022-09-14T16:47:02.090Z,15.32
2022-09-14T16:49:28.671Z,14.70
2022-09-14T16:51:55.520Z,13.10
2022-09-14T16:54:22.601Z,12.00
2022-09-14T16:56:49.018Z,13.68
2022-09-14T16:59:16.573Z,13.65
2022-09-14T17:01:44.081Z,13.15
2022-09-14T17:04:11.839Z,14.30
2022-09-14T17:06:39.062Z,11.35
2022-09-14T17:09:08.584Z,16.60
2022-09-14T17:11:35.714Z,13.85
2022-09-14T17:14:01.989Z,13.02
2022-09-14T17:16:28.879Z,13.07
2022-09-14T17:18:59.286Z,14.07
2022-09-14T17:21:26.913Z,11.68
2022-09-14T17:23:53.851Z,7.85
2022-09-14T17:26:21.481Z,8.80
2022-09-14T17:28:49.504Z,14.57
2022-09-14T17:31:20.475Z,9.27
2022-09-14T17:33:47.356Z,5.20
2022-09-14T17:36:14.388Z,8.35
2022-09-14T17:38:41.429Z,12.55
2022-09-14T17:41:09.250Z,6.03
2022-09-14T17:43:36.098Z,11.32
2022-09-14T17:46:02.919Z,14.18
2022-09-14T17:48:31.863Z,7.63
2022-09-14T17:50:58.360Z,8.25
2022-09-14T17:53:24.998Z,4.95
2022-09-14T17:55:51.247Z,14.20
2022-09-14T17:58:19.750Z,9.90
2022-09-14T18:00:46.290Z,10.77
2022-09-14T18:03:12.683Z,14.48
2022-09-14T18:05:38.987Z,10.57
2022-09-14T18:08:05.265Z,10.48
2022-09-14T18:10:31.575Z,10.20
2022-09-14T18:12:57.850Z,12.27
2022-09-14T18:15:24.098Z,8.77
2022-09-14T18:17:52.266Z,6.65
2022-09-14T18:20:18.592Z,10.45
2022-09-14T18:22:44.927Z,8.95
2022-09-14T18:25:11.219Z,9.73
2022-09-14T18:27:37.556Z,11.82
2022-09-14T18:30:06.545Z,10.18
2022-09-14T18:32:33.453Z,14.70
2022-09-14T18:35:00.983Z,10.98
2022-09-14T18:37:27.233Z,12.93
2022-09-14T18:39:53.792Z,8.88
2022-09-14T18:42:20.053Z,13.13
2022-09-14T18:44:46.730Z,7.85
2022-09-14T18:47:13.443Z,8.38
2022-09-14T18:49:39.727Z,8.27
2022-09-14T18:52:06.030Z,7.20
2022-09-14T18:54:32.523Z,8.68
2022-09-14T18:56:58.776Z,11.05
2022-09-14T18:59:25.123Z,9.75
2022-09-14T19:01:51.443Z,6.72
2022-09-14T19:04:17.719Z,6.97
2022-09-14T19:06:44.583Z,15.23
2022-09-14T19:09:11.181Z,10.80
2022-09-14T19:11:37.699Z,7.32
2022-09-14T19:14:09.218Z,11.60
2022-09-14T19:16:36.039Z,7.78
2022-09-14T19:19:02.271Z,16.65
2022-09-14T19:21:29.627Z,16.88
2022-09-14T19:24:00.559Z,14.40
2022-09-14T19:26:28.435Z,15.38
2022-09-14T19:28:54.855Z,14.63
2022-09-14T19:31:23.277Z,9.25
2022-09-14T19:33:50.009Z,9.05
2022-09-14T19:36:17.576Z,10.85
2022-09-14T19:38:43.817Z,20.70
2022-09-14T19:41:10.396Z,15.20
2022-09-14T19:43:36.653Z,12.40
2022-09-14T19:46:10.440Z,13.25
2022-09-14T19:48:37.245Z,10.60
2022-09-14T19:51:04.881Z,15.88
2022-09-14T19:53:32.524Z,12.65
2022-09-14T19:55:59.175Z,15.35
2022-09-14T19:58:28.621Z,14.80
2022-09-14T20:00:55.459Z,14.45
2022-09-14T20:03:22.383Z,14.82
2022-09-14T20:05:49.026Z,13.73
2022-09-14T20:08:15.287Z,12.45
2022-09-14T20:10:41.547Z,13.73
2022-09-14T20:13:07.837Z,12.43
2022-09-14T20:15:34.123Z,11.88
2022-09-14T20:18:00.417Z,12.52
2022-09-14T20:20:26.733Z,11.48
2022-09-14T20:22:52.988Z,18.05
2022-09-14T20:25:20.004Z,20.05
2022-09-14T20:27:46.723Z,16.08
2022-09-14T20:30:13.060Z,16.17
2022-09-14T20:32:39.320Z,14.35
2022-09-14T20:35:05.612Z,16.85
2022-09-14T20:37:31.869Z,12.45
2022-09-14T20:39:58.186Z,11.13
2022-09-14T20:42:24.483Z,10.80
2022-09-14T20:44:50.923Z,16.33
2022-09-14T20:47:17.172Z,13.48
2022-09-14T20:49:43.506Z,14.02
2022-09-14T20:52:09.748Z,15.32
2022-09-14T20:54:36.004Z,15.88
2022-09-14T20:57:04.444Z,16.90
2022-09-14T20:59:31.015Z,18.45
2022-09-14T21:01:58.856Z,13.45
2022-09-14T21:04:27.485Z,15.05
2022-09-14T21:06:54.485Z,14.75
2022-09-14T21:09:22.692Z,13.70
2022-09-14T21:11:48.984Z,18.58
2022-09-14T21:14:16.122Z,15.55
2022-09-14T21:16:43.646Z,14.57
2022-09-14T21:19:11.265Z,16.65
2022-09-14T21:21:38.028Z,14.70
2022-09-14T21:24:07.011Z,19.30
2022-09-14T21:26:39.376Z,16.30
2022-09-14T21:29:09.395Z,17.30
2022-09-14T21:31:36.975Z,20.00
2022-09-14T21:34:04.719Z,20.35
2022-09-14T21:36:35.518Z,20.80
2022-09-14T21:39:09.428Z,17.63
2022-09-14T21:41:36.127Z,18.17
2022-09-14T21:44:02.689Z,22.65
2022-09-14T21:46:29.102Z,23.60
2022-09-14T21:48:55.977Z,23.73
2022-09-14T21:51:26.699Z,23.52
2022-09-14T21:53:57.334Z,24.15
2022-09-14T21:56:24.715Z,25.48
2022-09-14T21:58:52.250Z,22.33
2022-09-14T22:01:18.824Z,21.02
2022-09-14T22:03:45.150Z,20.83
2022-09-14T22:06:12.602Z,18.67
2022-09-14T22:08:39.371Z,22.33
2022-09-14T22:11:13.306Z,19.67
2022-09-14T22:13:39.661Z,21.45
2022-09-14T22:16:15.761Z,24.02
2022-09-14T22:18:47.141Z,22.50
2022-09-14T22:21:13.386Z,20.45
2022-09-14T22:23:39.647Z,21.45
2022-09-14T22:26:07.266Z,19.38
2022-09-14T22:28:33.702Z,25.13
2022-09-14T22:30:59.991Z,18.02
2022-09-14T22:33:26.285Z,27.67
2022-09-14T22:35:53.675Z,25.92
2022-09-14T22:38:21.161Z,16.90
2022-09-14T22:40:53.496Z,16.83
2022-09-14T22:43:19.769Z,18.48
2022-09-14T22:45:46.610Z,18.00
2022-09-14T22:48:12.904Z,19.48
2022-09-14T22:50:41.141Z,18.70
2022-09-14T22:53:07.885Z,17.23
2022-09-14T22:55:37.533Z,23.75
2022-09-14T22:58:04.138Z,17.48
2022-09-14T23:00:30.999Z,17.67
2022-09-14T23:02:57.295Z,24.90
2022-09-14T23:05:23.570Z,21.38
2022-09-14T23:07:49.874Z,20.48
2022-09-14T23:10:16.125Z,25.63
2022-09-14T23:12:42.386Z,27.02
2022-09-14T23:15:08.870Z,24.60
2022-09-14T23:17:35.222Z,25.02
2022-09-14T23:20:01.669Z,21.63
2022-09-14T23:22:27.983Z,21.95
2022-09-14T23:24:54.222Z,21.55
2022-09-14T23:27:20.465Z,21.40
2022-09-14T23:29:46.703Z,29.35
2022-09-14T23:32:12.965Z,23.65
2022-09-14T23:34:39.206Z,23.27
2022-09-14T23:37:05.477Z,26.67
2022-09-14T23:39:31.727Z,27.33
2022-09-14T23:41:58.006Z,22.73
2022-09-14T23:44:24.539Z,32.10
2022-09-14T23:46:50.899Z,22.75
2022-09-14T23:49:17.165Z,24.95
2022-09-14T23:51:43.728Z,23.58
2022-09-14T23:54:10.463Z,33.58
2022-09-14T23:56:38.537Z,25.58
2022-09-14T23:59:05.649Z,27.48
